Latest Weather Observations for Yulara

IDD60801

Issued at 3:31 am CST Saturday 3 December 2016 (issued every 30 minutes, with the page automatically refreshed every 10 minutes)

About weather observations | Map of weather stations | Latest weather observations for NT | Other Formats
Station Details ID: 015635 Name: YULARA AIRPORT Lat: -25.19 Lon: 130.97 Height: 492.0 m
Data from the previous 72 hours. | See also: Recent months at Yulara
Date/Time
CST
Temp
°C
App
Temp
°C
Dew
Point
°C
Rel
Hum
%
Delta-T
°C
Wind Press
QNH
hPa
Press
MSL
hPa
Rain since
9am
mm
Dir  Spd
km/h
Gust
km/h
Spd
kts
Gust
kts
03/03:00am 26.1 26.7 16.9 57 5.8 NNE 9 11 5 6 1010.8 1007.2 0.4
03/02:30am 25.4 28.4 19.3 69 4.0 WNW 2 7 1 4 1010.6 1006.9 0.4
03/02:00am 26.0 27.3 18.4 63 4.9 SE 9 13 5 7 1010.8 1007.2 0.4
03/01:30am 25.5 27.3 18.2 64 4.7 SW 6 9 3 5 1011.1 1007.5 0.4
03/01:00am 27.5 27.2 16.5 51 7.0 NE 13 20 7 11 1011.4 1007.8 0.4
03/12:30am 26.2 24.9 15.9 53 6.4 SSW 17 24 9 13 1012.3 1008.7 0.0
03/12:00am 25.2 24.7 17.7 63 4.8 SSW 17 20 9 11 1012.5 1008.8 0.0
 
Date/Time
CST
Temp
°C
App
Temp
°C
Dew
Point
°C
Rel
Hum
%
Delta-T
°C
Wind Press
QNH
hPa
Press
MSL
hPa
Rain since
9am
mm
Dir  Spd
km/h
Gust
km/h
Spd
kts
Gust
kts
02/11:30pm 26.4 26.4 17.2 57 5.9 W 13 17 7 9 1013.8 1010.2 0.0
02/11:00pm 28.7 28.3 13.0 38 9.5 NNE 7 17 4 9 1013.6 1010.0 0.0
02/10:30pm 28.8 28.2 13.5 39 9.3 SE 9 15 5 8 1012.8 1009.2 0.0
02/10:00pm 28.9 27.1 13.2 38 9.5 SSW 15 20 8 11 1012.3 1008.7 0.0
02/09:30pm 29.2 25.6 13.0 37 9.8 SSW 24 33 13 18 1011.9 1008.3 0.0
02/09:00pm 29.9 26.4 12.3 33 10.5 SSE 22 32 12 17 1011.1 1007.5 0.0
02/08:30pm 30.0 26.7 12.9 35 10.3 SSE 22 35 12 19 1010.7 1007.1 0.0
02/08:00pm 30.2 27.5 13.0 34 10.4 SSE 19 30 10 16 1010.1 1006.5 0.0
02/07:30pm 30.4 27.2 13.2 35 10.5 SSE 22 30 12 16 1009.9 1006.3 0.0
02/07:00pm 31.4 26.0 12.2 30 11.5 S 32 43 17 23 1009.3 1005.7 0.0
02/06:45pm 31.9 28.6 11.7 29 12.1 SSW 20 39 11 21 1009.1 1005.5 0.0
02/06:30pm 37.0 32.1 7.0 16 17.1 NNW 22 32 12 17 1008.2 1004.5 0.0
02/06:00pm 37.6 32.4 5.6 14 17.9 NNW 22 30 12 16 1007.7 1004.1 0.0
02/05:30pm 39.2 33.3 5.7 13 18.9 NW 26 41 14 22 1007.3 1003.7 0.0
02/05:00pm 39.1 33.6 5.7 13 18.8 NNW 24 39 13 21 1007.1 1003.5 0.0
02/04:38pm 39.2 32.5 5.7 13 18.9 NNW 30 48 16 26 1007.2 1003.6 0.0
02/04:30pm 39.3 32.1 5.8 13 19.0 NNW 33 48 18 26 1007.2 1003.6 0.0
02/04:22pm 39.5 33.0 4.8 12 19.3 NNW 28 50 15 27 1007.2 1003.6 0.0
02/04:00pm 39.0 32.7 5.6 13 18.8 NNW 28 44 15 24 1007.4 1003.8 0.0
02/03:33pm 39.1 33.0 6.7 14 18.5 N 28 50 15 27 1007.6 1004.0 0.0
02/03:30pm 39.8 34.6 7.3 14 18.8 N 24 43 13 23 1007.7 1004.1 0.0
02/03:00pm 39.1 33.4 6.7 14 18.6 NNW 26 44 14 24 1008.2 1004.5 0.0
02/02:33pm 39.2 32.8 6.8 14 18.6 NNW 30 48 16 26 1008.6 1004.9 0.0
02/02:30pm 39.4 33.0 7.0 14 18.7 NNW 30 46 16 25 1008.7 1005.0 0.0
02/02:00pm 38.9 32.4 6.6 14 18.4 NNW 30 48 16 26 1009.2 1005.6 0.0
02/01:51pm 38.2 32.0 6.0 14 18.1 NNW 28 52 15 28 1009.3 1005.7 0.0
02/01:30pm 38.6 33.4 7.4 15 18.0 N 24 39 13 21 1009.5 1005.9 0.0
02/01:00pm 37.9 31.8 6.8 15 17.7 N 28 46 15 25 1009.9 1006.3 0.0
02/12:58pm 38.0 32.0 6.9 15 17.7 N 28 46 15 25 1009.9 1006.3 0.0
02/12:30pm 37.3 31.0 7.3 16 17.2 N 30 41 16 22 1010.1 1006.5 0.0
02/12:00pm 37.4 33.0 7.3 16 17.3 NNE 20 33 11 18 1010.7 1007.1 0.0
02/11:30am 35.8 29.6 6.1 16 16.6 NNE 28 48 15 26 1011.1 1007.5 0.0
02/11:25am 36.8 31.1 6.9 16 17.0 NNE 26 48 14 26 1011.0 1007.4 0.0
02/11:00am 36.2 30.4 6.4 16 16.7 NE 26 35 14 19 1011.0 1007.4 0.0
02/10:30am 35.2 29.8 6.5 17 16.1 ENE 24 35 13 19 1011.1 1007.5 0.0
02/10:00am 34.2 28.6 7.3 19 15.2 ENE 26 35 14 19 1011.2 1007.6 0.0
02/09:30am 33.8 27.6 6.2 18 15.3 ENE 28 37 15 20 1011.2 1007.6 0.0
02/09:00am 32.3 27.7 6.5 20 14.3 ENE 20 28 11 15 1011.2 1007.6 0.0
02/08:30am 31.8 28.0 7.5 22 13.6 NE 17 22 9 12 1011.1 1007.5 0.0
02/08:00am 31.6 27.3 8.0 23 13.3 E 20 28 11 15 1010.6 1006.9 0.0
02/07:30am 30.9 25.7 7.4 23 13.1 E 24 33 13 18 1010.6 1006.9 0.0
02/07:00am 30.1 27.1 7.9 25 12.4 ENE 13 22 7 12 1011.0 1007.4 0.0
02/06:30am 30.1 26.6 7.3 24 12.6 ESE 15 22 8 12 1010.4 1006.7 0.0
02/06:00am 30.0 25.7 7.8 25 12.4 ESE 20 32 11 17 1009.4 1005.8 0.0
02/05:43am 29.8 24.1 8.2 26 12.1 SE 28 50 15 27 1008.9 1005.3 0.0
02/05:30am 29.8 25.2 8.2 26 12.1 ESE 22 35 12 19 1008.6 1004.9 0.0
02/05:00am 29.3 26.2 8.9 28 11.5 SSE 15 20 8 11 1008.7 1005.0 0.0
02/04:30am 29.2 26.8 8.8 28 11.5 SSE 11 15 6 8 1008.6 1004.9 0.0
02/04:00am 29.2 26.2 9.3 29 11.3 SE 15 19 8 10 1008.4 1004.7 0.0
02/03:30am 28.0 26.8 10.2 33 10.2 SSE 7 11 4 6 1008.4 1004.7 0.0
02/03:00am 28.9 28.0 10.6 32 10.6 SSE 6 13 3 7 1008.6 1004.9 0.0
02/02:30am 29.1 28.5 10.3 31 10.9 NNE 4 11 2 6 1008.7 1005.0 0.0
02/02:00am 29.6 28.9 10.2 30 11.2 SSE 4 6 2 3 1008.6 1004.9 0.0
02/01:30am 30.3 28.3 10.3 29 11.6 SSE 11 17 6 9 1008.5 1004.8 0.0
02/01:00am 30.5 27.8 10.5 29 11.7 S 15 20 8 11 1008.9 1005.3 0.0
02/12:30am 30.8 28.2 10.7 29 11.8 WSW 15 24 8 13 1009.8 1006.2 0.0
02/12:00am 31.4 27.1 10.7 28 12.2 SSW 24 33 13 18 1008.9 1005.3 0.0
 
Date/Time
CST
Temp
°C
App
Temp
°C
Dew
Point
°C
Rel
Hum
%
Delta-T
°C
Wind Press
QNH
hPa
Press
MSL
hPa
Rain since
9am
mm
Dir  Spd
km/h
Gust
km/h
Spd
kts
Gust
kts
01/11:30pm 31.9 25.8 10.6 27 12.5 S 33 52 18 28 1009.3 1005.7 0.0
01/11:21pm 32.2 25.9 9.7 25 13.1 S 33 52 18 28 1008.6 1004.9 0.0
01/11:17pm 32.5 26.4 9.9 25 13.2 SSW 32 46 17 25 1008.6 1004.9 0.0
01/11:00pm 32.2 27.7 7.1 21 14.0 SSW 20 28 11 15 1008.8 1005.1 0.0
01/10:30pm 29.9 27.2 3.8 19 13.6 N 7 9 4 5 1007.6 1004.0 0.0
01/10:00pm 30.9 28.2 3.8 18 14.2 N 7 7 4 4 1007.3 1003.7 0.0
01/09:30pm 31.4 28.5 2.6 16 14.9 NW 7 11 4 6 1007.0 1003.4 0.0
01/09:00pm 33.1 29.4 2.1 14 16.1 N 11 15 6 8 1006.6 1002.9 0.0
01/08:30pm 34.6 30.3 1.1 12 17.2 N 13 19 7 10 1006.3 1002.6 0.0
01/08:00pm 34.5 31.0 1.0 12 17.1 N 9 13 5 7 1005.7 1002.1 0.0
01/07:30pm 35.5 31.9 0.6 11 17.9 N 9 13 5 7 1005.4 1001.8 0.0
01/07:00pm 38.0 33.3 1.1 10 19.3 NW 15 20 8 11 1005.0 1001.3 0.0
01/06:30pm 39.1 33.0 0.5 9 20.2 NW 22 33 12 18 1004.7 1001.0 0.0
01/06:00pm 39.0 32.9 0.4 9 20.1 NNW 22 30 12 16 1004.6 1000.9 0.0
01/05:30pm 39.5 32.7 0.8 9 20.4 NNW 26 41 14 22 1004.7 1001.0 0.0
01/05:00pm 39.1 33.0 0.5 9 20.1 NNW 22 35 12 19 1004.8 1001.1 0.0
01/04:32pm 39.6 32.4 0.9 9 20.3 NNW 28 54 15 29 1004.9 1001.2 0.0
01/04:30pm 39.8 33.4 1.0 9 20.5 NNW 24 54 13 29 1004.9 1001.2 0.0
01/04:00pm 39.8 33.2 -0.6 8 20.8 NNW 24 37 13 20 1005.1 1001.5 0.0
01/03:37pm 39.5 32.1 -0.8 8 20.6 NW 28 46 15 25 1005.3 1001.7 0.0
01/03:30pm 39.8 32.0 -0.6 8 20.9 NW 30 41 16 22 1005.4 1001.8 0.0
01/03:00pm 41.1 34.6 0.3 8 21.5 WNW 24 39 13 21 1005.7 1002.1 0.0
01/02:43pm 41.5 34.4 -1.2 7 22.0 WNW 26 48 14 26 1005.9 1002.3 0.0
01/02:30pm 40.0 33.0 -0.5 8 21.0 NNW 26 44 14 24 1006.1 1002.4 0.0
01/02:04pm 41.1 33.6 -1.5 7 21.8 NNW 28 54 15 29 1006.5 1002.8 0.0
01/02:00pm 39.6 32.6 -0.8 8 20.7 NNW 26 54 14 29 1006.5 1002.8 0.0
01/01:35pm 40.2 32.1 -0.3 8 21.0 NNW 32 52 17 28 1006.8 1003.1 0.0
01/01:30pm 41.5 34.8 -1.2 7 22.1 NW 24 44 13 24 1006.7 1003.0 0.0
01/01:15pm 40.8 33.5 0.1 8 21.3 NW 28 48 15 26 1007.0 1003.4 0.0
01/01:00pm 40.6 33.0 -1.9 7 21.5 NNW 28 46 15 25 1007.3 1003.7 0.0
01/12:30pm 39.9 32.5 -0.5 8 20.9 NW 28 52 15 28 1007.7 1004.1 0.0
01/12:00pm 39.7 32.7 -0.7 8 20.8 NNW 26 41 14 22 1008.2 1004.5 0.0
01/11:30am 38.6 34.0 1.6 10 19.6 NNW 15 32 8 17 1008.6 1004.9 0.0
01/11:00am 37.5 31.4 0.7 10 19.1 NW 22 30 12 16 1009.0 1005.4 0.0
01/10:30am 37.9 34.4 3.6 12 18.7 NNW 11 17 6 9 1009.1 1005.5 0.0
01/10:00am 36.6 33.9 3.7 13 17.8 NNW 7 15 4 8 1009.2 1005.6 0.0
01/09:30am 35.5 33.4 6.7 17 16.2 ENE 7 9 4 5 1009.4 1005.8 0.0
01/09:00am 33.2 30.7 6.5 19 14.8 NE 9 15 5 8 1009.6 1006.4 0.0
01/08:30am 31.8 30.8 7.5 22 13.6 ENE 2 7 1 4 1009.5 1006.3 0.0
01/08:00am 29.4 27.4 7.3 25 12.2 NNE 7 11 4 6 1009.6 1006.4 0.0
01/07:30am 27.3 26.7 7.2 28 11.0 CALM 0 0 0 0 1009.3 1006.1 0.0
01/07:00am 24.9 23.6 7.5 33 9.4 ENE 4 13 2 7 1009.3 1006.1 0.0
01/06:30am 22.1 21.4 7.1 38 7.9 CALM 0 0 0 0 1008.9 1005.7 0.0
01/06:00am 21.4 20.0 7.3 40 7.5 WSW 4 7 2 4 1008.7 1005.5 0.0
01/05:30am 20.3 18.8 7.0 42 6.9 S 4 7 2 4 1008.2 1004.9 0.0
01/05:00am 21.8 19.9 6.5 37 8.0 S 6 9 3 5 1007.9 1004.7 0.0
01/04:30am 21.7 20.1 6.4 37 8.0 S 4 7 2 4 1008.2 1004.9 0.0
01/04:00am 23.0 20.9 6.7 35 8.6 SSE 7 17 4 9 1008.3 1005.0 0.0
01/03:30am 22.5 21.4 7.1 37 8.2 NW 2 7 1 4 1007.9 1004.7 0.0
01/03:00am 24.1 21.4 7.3 34 9.0 N 11 17 6 9 1008.0 1004.8 0.0
01/02:30am 23.1 22.0 6.8 35 8.6 W 2 17 1 9 1008.0 1004.8 0.0
01/02:00am 23.4 22.7 7.1 35 8.7 CALM 0 0 0 0 1008.0 1004.8 0.0
01/01:30am 24.5 22.7 7.2 33 9.3 W 6 7 3 4 1008.3 1005.0 0.0
01/01:00am 24.8 24.1 7.0 32 9.5 CALM 0 0 0 0 1008.5 1005.2 0.0
01/12:30am 26.2 25.6 7.3 30 10.3 CALM 0 0 0 0 1008.6 1005.4 0.0
01/12:00am 26.3 25.6 6.9 29 10.5 CALM 0 0 0 0 1008.8 1005.6 0.0
 
Date/Time
CST
Temp
°C
App
Temp
°C
Dew
Point
°C
Rel
Hum
%
Delta-T
°C
Wind Press
QNH
hPa
Press
MSL
hPa
Rain since
9am
mm
Dir  Spd
km/h
Gust
km/h
Spd
kts
Gust
kts
30/11:30pm 28.0 27.4 7.3 27 11.3 CALM 0 6 0 3 1009.2 1006.0 0.0
30/11:00pm 28.5 26.7 7.1 26 11.7 NNW 6 7 3 4 1009.4 1006.2 0.0
30/10:30pm 30.6 28.2 7.1 23 13.0 WSW 9 11 5 6 1009.3 1006.1 0.0
30/10:00pm 31.5 29.1 7.2 22 13.5 W 9 13 5 7 1009.4 1006.2 0.0
30/09:30pm 32.2 29.1 7.1 21 14.0 WSW 13 17 7 9 1009.3 1006.1 0.0
30/09:00pm 32.5 29.8 7.4 21 14.1 W 11 17 6 9 1009.1 1005.9 0.0
30/08:30pm 33.7 30.1 6.9 19 15.0 W 15 22 8 12 1008.8 1005.6 0.0
30/08:00pm 34.7 29.6 6.1 17 15.9 W 22 33 12 18 1008.6 1005.4 0.0
30/07:30pm 35.4 31.0 4.8 15 16.7 W 17 22 9 12 1008.2 1004.9 0.0
30/07:00pm 36.2 31.4 4.5 14 17.3 W 19 26 10 14 1007.8 1004.6 0.0
30/06:30pm 37.0 32.1 1.7 11 18.6 WNW 17 26 9 14 1007.5 1004.3 0.0
30/06:00pm 37.1 31.8 1.8 11 18.6 WNW 19 26 10 14 1007.4 1004.2 0.0
30/05:30pm 37.5 32.0 0.7 10 19.1 WNW 19 28 10 15 1007.2 1004.0 0.0
30/05:00pm 38.0 32.4 1.1 10 19.3 WNW 20 26 11 14 1007.2 1004.0 0.0
30/04:30pm 38.7 32.6 0.2 9 20.0 WNW 22 32 12 17 1007.2 1004.0 0.0
30/04:00pm 38.7 33.7 -1.4 8 20.3 NW 15 20 8 11 1007.3 1004.1 0.0
30/03:30pm 38.8 32.8 -1.3 8 20.3 NNW 20 33 11 18 1007.4 1004.2 0.0
30/03:00pm 39.5 35.3 -0.8 8 20.7 WNW 11 19 6 10 1007.7 1004.5 0.0
30/02:30pm 40.2 36.2 -2.1 7 21.4 SSE 9 17 5 9 1007.9 1004.7 0.0
30/02:00pm 39.1 33.7 -1.1 8 20.4 SSW 17 26 9 14 1008.2 1004.9 0.0
30/01:30pm 39.1 34.5 -1.1 8 20.5 WNW 13 26 7 14 1008.7 1005.5 0.0
30/01:00pm 39.5 33.8 -0.8 8 20.6 NW 19 30 10 16 1009.2 1006.0 0.0
30/12:30pm 38.8 33.4 -1.3 8 20.3 NNW 17 30 9 16 1009.6 1006.4 0.0
30/12:00pm 39.3 33.7 -2.8 7 20.9 NW 17 28 9 15 1009.9 1006.7 0.0
30/11:30am 38.1 31.8 -3.7 7 20.3 NW 20 28 11 15 1010.2 1007.0 0.0
30/11:00am 36.3 30.3 -3.2 8 19.1 N 19 32 10 17 1010.6 1007.4 0.0
30/10:30am 35.0 29.1 -2.6 9 18.2 N 19 30 10 16 1010.8 1007.6 0.0
30/10:00am 34.4 29.2 -3.0 9 17.9 N 15 22 8 12 1011.1 1007.9 0.0
30/09:30am 32.9 27.3 -2.7 10 17.0 NNE 17 24 9 13 1011.1 1007.9 0.0
30/09:00am 30.5 26.4 -3.3 11 15.7 NE 9 15 5 8 1011.4 1008.2 0.0
30/08:30am 29.4 25.3 -2.9 12 15.0 ESE 9 13 5 7 1011.3 1008.1 0.0
30/08:00am 27.3 22.9 -2.5 14 13.7 ESE 11 15 6 8 1011.3 1008.1 0.0
30/07:30am 27.2 22.7 -3.6 13 13.9 ESE 11 15 6 8 1010.9 1007.7 0.0
30/07:00am 22.4 20.4 -0.3 22 10.4 CALM 0 6 0 3 1010.9 1007.7 0.0
30/06:30am 19.4 15.9 -1.1 25 9.1 SSW 7 9 4 5 1010.8 1007.6 0.0
30/06:00am 19.6 15.7 -1.5 24 9.3 S 9 13 5 7 1010.4 1007.1 0.0
30/05:30am 19.8 16.4 -1.9 23 9.5 SSW 6 9 3 5 1010.1 1006.9 0.0
30/05:00am 20.9 16.5 -2.2 21 10.1 SSW 11 15 6 8 1009.7 1006.5 0.0
30/04:30am 23.4 18.5 -3.0 17 11.6 S 13 17 7 9 1009.6 1006.4 0.0
30/04:00am 23.9 19.1 -2.6 17 11.8 SE 13 15 7 8 1009.5 1006.3 0.0

Other Formats:

Comma delimited format used in spreadsheet applications
http://www.bom.gov.au/fwo/IDD60801/IDD60801.94462.axf

JavaScript Object Notation format (JSON) in row-major order
http://www.bom.gov.au/fwo/IDD60801/IDD60801.94462.json